sensor_id;sensor_type;location;lat;lon;timestamp;P1;durP1;ratioP1;P2;durP2;ratioP2
31638;SDS011;18248;51.522;7.020;2023-04-24T00:02:21;3.15;;;0.80;;
31638;SDS011;18248;51.522;7.020;2023-04-24T00:05:20;2.55;;;1.00;;
31638;SDS011;18248;51.522;7.020;2023-04-24T00:08:18;1.38;;;0.80;;
31638;SDS011;18248;51.522;7.020;2023-04-24T00:11:17;2.33;;;0.60;;
31638;SDS011;18248;51.522;7.020;2023-04-24T00:14:16;2.15;;;0.60;;
31638;SDS011;18248;51.522;7.020;2023-04-24T00:17:15;1.48;;;0.65;;
31638;SDS011;18248;51.522;7.020;2023-04-24T00:20:14;5.68;;;0.80;;
31638;SDS011;18248;51.522;7.020;2023-04-24T00:23:12;1.98;;;0.90;;
31638;SDS011;18248;51.522;7.020;2023-04-24T00:26:11;2.58;;;0.90;;
31638;SDS011;18248;51.522;7.020;2023-04-24T00:29:10;1.85;;;1.00;;
31638;SDS011;18248;51.522;7.020;2023-04-24T00:32:08;3.05;;;1.10;;
31638;SDS011;18248;51.522;7.020;2023-04-24T00:35:07;1.95;;;0.90;;
31638;SDS011;18248;51.522;7.020;2023-04-24T00:38:06;1.67;;;0.90;;
31638;SDS011;18248;51.522;7.020;2023-04-24T00:41:05;1.20;;;0.98;;
31638;SDS011;18248;51.522;7.020;2023-04-24T00:44:04;2.42;;;1.00;;
31638;SDS011;18248;51.522;7.020;2023-04-24T00:47:03;3.05;;;0.95;;
31638;SDS011;18248;51.522;7.020;2023-04-24T00:50:05;4.85;;;1.10;;
31638;SDS011;18248;51.522;7.020;2023-04-24T00:53:05;3.05;;;1.00;;
31638;SDS011;18248;51.522;7.020;2023-04-24T00:56:04;1.92;;;1.17;;
31638;SDS011;18248;51.522;7.020;2023-04-24T00:59:03;1.27;;;0.90;;
31638;SDS011;18248;51.522;7.020;2023-04-24T01:02:02;2.92;;;1.50;;
31638;SDS011;18248;51.522;7.020;2023-04-24T01:05:01;3.72;;;1.30;;
31638;SDS011;18248;51.522;7.020;2023-04-24T01:07:59;3.30;;;1.30;;
31638;SDS011;18248;51.522;7.020;2023-04-24T01:10:59;3.05;;;1.05;;
31638;SDS011;18248;51.522;7.020;2023-04-24T01:14:01;2.53;;;1.20;;
31638;SDS011;18248;51.522;7.020;2023-04-24T01:17:00;5.00;;;1.40;;
31638;SDS011;18248;51.522;7.020;2023-04-24T01:19:59;6.68;;;1.52;;
31638;SDS011;18248;51.522;7.020;2023-04-24T01:22:59;3.63;;;1.65;;
31638;SDS011;18248;51.522;7.020;2023-04-24T01:25:58;5.78;;;2.38;;
31638;SDS011;18248;51.522;7.020;2023-04-24T01:28:57;4.82;;;2.78;;
31638;SDS011;18248;51.522;7.020;2023-04-24T01:31:55;6.80;;;3.28;;
31638;SDS011;18248;51.522;7.020;2023-04-24T01:34:56;8.85;;;3.55;;
31638;SDS011;18248;51.522;7.020;2023-04-24T01:37:55;9.10;;;3.88;;
31638;SDS011;18248;51.522;7.020;2023-04-24T01:40:53;8.10;;;3.65;;
31638;SDS011;18248;51.522;7.020;2023-04-24T01:43:52;9.38;;;3.97;;
31638;SDS011;18248;51.522;7.020;2023-04-24T01:46:52;7.78;;;4.38;;
31638;SDS011;18248;51.522;7.020;2023-04-24T01:49:52;10.15;;;5.07;;
31638;SDS011;18248;51.522;7.020;2023-04-24T01:52:52;7.75;;;4.53;;
31638;SDS011;18248;51.522;7.020;2023-04-24T01:55:51;9.45;;;4.55;;
31638;SDS011;18248;51.522;7.020;2023-04-24T01:58:50;6.68;;;3.90;;
31638;SDS011;18248;51.522;7.020;2023-04-24T02:01:50;11.65;;;4.05;;
31638;SDS011;18248;51.522;7.020;2023-04-24T02:04:49;9.68;;;4.30;;
31638;SDS011;18248;51.522;7.020;2023-04-24T02:07:49;5.15;;;3.30;;
31638;SDS011;18248;51.522;7.020;2023-04-24T02:10:48;7.97;;;3.60;;
31638;SDS011;18248;51.522;7.020;2023-04-24T02:13:46;6.22;;;3.97;;
31638;SDS011;18248;51.522;7.020;2023-04-24T02:16:45;6.47;;;3.67;;
31638;SDS011;18248;51.522;7.020;2023-04-24T02:19:45;9.48;;;3.20;;
31638;SDS011;18248;51.522;7.020;2023-04-24T02:22:44;13.18;;;4.93;;
31638;SDS011;18248;51.522;7.020;2023-04-24T02:25:42;8.40;;;4.80;;
31638;SDS011;18248;51.522;7.020;2023-04-24T02:28:41;9.63;;;5.05;;
31638;SDS011;18248;51.522;7.020;2023-04-24T02:31:42;9.20;;;5.55;;
31638;SDS011;18248;51.522;7.020;2023-04-24T02:34:41;8.40;;;5.25;;
31638;SDS011;18248;51.522;7.020;2023-04-24T02:37:39;10.38;;;5.47;;
31638;SDS011;18248;51.522;7.020;2023-04-24T02:40:38;14.82;;;6.65;;
31638;SDS011;18248;51.522;7.020;2023-04-24T02:43:36;11.90;;;7.28;;
31638;SDS011;18248;51.522;7.020;2023-04-24T02:46:35;12.02;;;7.50;;
31638;SDS011;18248;51.522;7.020;2023-04-24T02:49:33;15.88;;;8.15;;
31638;SDS011;18248;51.522;7.020;2023-04-24T02:52:32;16.15;;;7.05;;
31638;SDS011;18248;51.522;7.020;2023-04-24T02:55:31;12.68;;;7.70;;
31638;SDS011;18248;51.522;7.020;2023-04-24T02:58:30;15.77;;;8.45;;
31638;SDS011;18248;51.522;7.020;2023-04-24T03:01:29;14.18;;;8.70;;
31638;SDS011;18248;51.522;7.020;2023-04-24T03:04:27;20.27;;;9.15;;
31638;SDS011;18248;51.522;7.020;2023-04-24T03:07:26;22.67;;;9.27;;
31638;SDS011;18248;51.522;7.020;2023-04-24T03:10:25;17.20;;;9.32;;
31638;SDS011;18248;51.522;7.020;2023-04-24T03:13:23;24.00;;;9.15;;
31638;SDS011;18248;51.522;7.020;2023-04-24T03:16:22;21.80;;;9.07;;
31638;SDS011;18248;51.522;7.020;2023-04-24T03:19:20;17.90;;;9.50;;
31638;SDS011;18248;51.522;7.020;2023-04-24T03:22:19;16.00;;;9.13;;
31638;SDS011;18248;51.522;7.020;2023-04-24T03:25:17;20.05;;;9.48;;
31638;SDS011;18248;51.522;7.020;2023-04-24T03:28:16;19.08;;;8.98;;
31638;SDS011;18248;51.522;7.020;2023-04-24T03:31:14;18.88;;;10.07;;
31638;SDS011;18248;51.522;7.020;2023-04-24T03:34:13;18.75;;;10.35;;
31638;SDS011;18248;51.522;7.020;2023-04-24T03:37:12;18.55;;;11.30;;
31638;SDS011;18248;51.522;7.020;2023-04-24T03:40:10;23.10;;;11.10;;
31638;SDS011;18248;51.522;7.020;2023-04-24T03:43:09;19.45;;;11.18;;
31638;SDS011;18248;51.522;7.020;2023-04-24T03:46:09;24.88;;;11.82;;
31638;SDS011;18248;51.522;7.020;2023-04-24T03:49:08;23.77;;;11.40;;
31638;SDS011;18248;51.522;7.020;2023-04-24T03:52:06;23.65;;;11.90;;
31638;SDS011;18248;51.522;7.020;2023-04-24T03:55:05;28.90;;;12.43;;
31638;SDS011;18248;51.522;7.020;2023-04-24T03:58:05;21.58;;;11.63;;
31638;SDS011;18248;51.522;7.020;2023-04-24T04:01:04;28.40;;;12.30;;
31638;SDS011;18248;51.522;7.020;2023-04-24T04:04:03;21.58;;;11.15;;
31638;SDS011;18248;51.522;7.020;2023-04-24T04:07:02;21.70;;;11.20;;
31638;SDS011;18248;51.522;7.020;2023-04-24T04:10:01;27.58;;;11.32;;
31638;SDS011;18248;51.522;7.020;2023-04-24T04:12:59;23.33;;;11.32;;
31638;SDS011;18248;51.522;7.020;2023-04-24T04:15:58;21.83;;;10.85;;
31638;SDS011;18248;51.522;7.020;2023-04-24T04:18:56;22.83;;;11.18;;
31638;SDS011;18248;51.522;7.020;2023-04-24T04:21:55;22.33;;;10.80;;
31638;SDS011;18248;51.522;7.020;2023-04-24T04:24:54;22.75;;;11.27;;
31638;SDS011;18248;51.522;7.020;2023-04-24T04:27:52;20.17;;;10.50;;
31638;SDS011;18248;51.522;7.020;2023-04-24T04:30:51;19.88;;;10.50;;
31638;SDS011;18248;51.522;7.020;2023-04-24T04:33:53;21.40;;;10.48;;
31638;SDS011;18248;51.522;7.020;2023-04-24T04:36:51;21.25;;;11.10;;
31638;SDS011;18248;51.522;7.020;2023-04-24T04:39:50;16.85;;;9.95;;
31638;SDS011;18248;51.522;7.020;2023-04-24T04:42:50;19.17;;;9.65;;
31638;SDS011;18248;51.522;7.020;2023-04-24T04:45:51;21.55;;;11.02;;
31638;SDS011;18248;51.522;7.020;2023-04-24T04:48:52;25.60;;;10.18;;
31638;SDS011;18248;51.522;7.020;2023-04-24T04:51:51;18.92;;;10.60;;
31638;SDS011;18248;51.522;7.020;2023-04-24T04:54:50;19.42;;;10.25;;
31638;SDS011;18248;51.522;7.020;2023-04-24T04:57:49;15.45;;;9.75;;
31638;SDS011;18248;51.522;7.020;2023-04-24T05:00:48;19.70;;;11.05;;
31638;SDS011;18248;51.522;7.020;2023-04-24T05:03:47;22.02;;;10.68;;
31638;SDS011;18248;51.522;7.020;2023-04-24T05:06:45;18.17;;;9.90;;
31638;SDS011;18248;51.522;7.020;2023-04-24T05:09:45;18.63;;;10.10;;
31638;SDS011;18248;51.522;7.020;2023-04-24T05:12:43;16.95;;;9.20;;
31638;SDS011;18248;51.522;7.020;2023-04-24T05:15:42;18.00;;;9.40;;
31638;SDS011;18248;51.522;7.020;2023-04-24T05:18:40;18.88;;;9.77;;
31638;SDS011;18248;51.522;7.020;2023-04-24T05:21:39;20.40;;;9.40;;
31638;SDS011;18248;51.522;7.020;2023-04-24T05:24:38;18.52;;;9.77;;
31638;SDS011;18248;51.522;7.020;2023-04-24T05:27:37;17.67;;;9.18;;
31638;SDS011;18248;51.522;7.020;2023-04-24T05:30:36;14.88;;;8.77;;
31638;SDS011;18248;51.522;7.020;2023-04-24T05:33:34;13.75;;;8.07;;
31638;SDS011;18248;51.522;7.020;2023-04-24T05:36:33;14.80;;;8.65;;
31638;SDS011;18248;51.522;7.020;2023-04-24T05:39:31;14.60;;;8.85;;
31638;SDS011;18248;51.522;7.020;2023-04-24T05:42:30;15.63;;;9.18;;
31638;SDS011;18248;51.522;7.020;2023-04-24T05:45:29;17.08;;;9.05;;
31638;SDS011;18248;51.522;7.020;2023-04-24T05:48:28;14.95;;;10.32;;
31638;SDS011;18248;51.522;7.020;2023-04-24T05:51:27;21.98;;;11.32;;
31638;SDS011;18248;51.522;7.020;2023-04-24T05:54:26;19.50;;;10.43;;
31638;SDS011;18248;51.522;7.020;2023-04-24T05:57:24;24.13;;;11.55;;
31638;SDS011;18248;51.522;7.020;2023-04-24T06:00:23;21.85;;;11.77;;
31638;SDS011;18248;51.522;7.020;2023-04-24T06:03:24;17.88;;;11.43;;
31638;SDS011;18248;51.522;7.020;2023-04-24T06:06:23;20.73;;;11.23;;
31638;SDS011;18248;51.522;7.020;2023-04-24T06:09:22;17.42;;;9.63;;
31638;SDS011;18248;51.522;7.020;2023-04-24T06:12:21;16.35;;;10.65;;
31638;SDS011;18248;51.522;7.020;2023-04-24T06:15:21;17.38;;;10.10;;
31638;SDS011;18248;51.522;7.020;2023-04-24T06:18:20;12.88;;;9.80;;
31638;SDS011;18248;51.522;7.020;2023-04-24T06:21:19;15.02;;;9.95;;
31638;SDS011;18248;51.522;7.020;2023-04-24T06:24:18;16.48;;;10.02;;
31638;SDS011;18248;51.522;7.020;2023-04-24T06:27:17;18.48;;;9.75;;
31638;SDS011;18248;51.522;7.020;2023-04-24T06:30:15;14.48;;;9.45;;
31638;SDS011;18248;51.522;7.020;2023-04-24T06:33:14;12.93;;;9.02;;
31638;SDS011;18248;51.522;7.020;2023-04-24T06:36:12;17.88;;;9.73;;
31638;SDS011;18248;51.522;7.020;2023-04-24T06:39:11;15.68;;;8.95;;
31638;SDS011;18248;51.522;7.020;2023-04-24T06:42:10;15.07;;;9.35;;
31638;SDS011;18248;51.522;7.020;2023-04-24T06:45:09;12.05;;;8.05;;
31638;SDS011;18248;51.522;7.020;2023-04-24T06:48:08;17.98;;;9.38;;
31638;SDS011;18248;51.522;7.020;2023-04-24T06:51:07;16.63;;;9.75;;
31638;SDS011;18248;51.522;7.020;2023-04-24T06:54:06;18.27;;;9.63;;
31638;SDS011;18248;51.522;7.020;2023-04-24T06:57:04;11.95;;;8.20;;
31638;SDS011;18248;51.522;7.020;2023-04-24T07:00:03;14.60;;;9.50;;
31638;SDS011;18248;51.522;7.020;2023-04-24T07:03:04;10.38;;;7.80;;
31638;SDS011;18248;51.522;7.020;2023-04-24T07:06:04;12.82;;;8.32;;
31638;SDS011;18248;51.522;7.020;2023-04-24T07:09:03;14.27;;;7.68;;
31638;SDS011;18248;51.522;7.020;2023-04-24T07:12:03;12.48;;;7.60;;
31638;SDS011;18248;51.522;7.020;2023-04-24T07:15:03;10.05;;;6.85;;
31638;SDS011;18248;51.522;7.020;2023-04-24T07:18:03;13.05;;;6.35;;
31638;SDS011;18248;51.522;7.020;2023-04-24T07:21:01;8.95;;;5.80;;
31638;SDS011;18248;51.522;7.020;2023-04-24T07:24:00;8.35;;;5.25;;
31638;SDS011;18248;51.522;7.020;2023-04-24T07:26:59;8.75;;;5.93;;
31638;SDS011;18248;51.522;7.020;2023-04-24T07:29:59;8.07;;;4.70;;
31638;SDS011;18248;51.522;7.020;2023-04-24T07:32:57;8.65;;;4.10;;
31638;SDS011;18248;51.522;7.020;2023-04-24T07:35:56;8.05;;;4.25;;
31638;SDS011;18248;51.522;7.020;2023-04-24T07:38:55;6.30;;;3.97;;
31638;SDS011;18248;51.522;7.020;2023-04-24T07:41:54;4.78;;;3.40;;
31638;SDS011;18248;51.522;7.020;2023-04-24T07:44:54;3.92;;;3.05;;
31638;SDS011;18248;51.522;7.020;2023-04-24T07:47:55;4.97;;;3.15;;
31638;SDS011;18248;51.522;7.020;2023-04-24T07:50:54;6.57;;;3.33;;
31638;SDS011;18248;51.522;7.020;2023-04-24T07:53:53;8.32;;;3.35;;
31638;SDS011;18248;51.522;7.020;2023-04-24T07:56:53;8.48;;;3.35;;
31638;SDS011;18248;51.522;7.020;2023-04-24T07:59:53;6.50;;;2.88;;
31638;SDS011;18248;51.522;7.020;2023-04-24T08:02:51;4.85;;;2.05;;
31638;SDS011;18248;51.522;7.020;2023-04-24T08:05:50;6.53;;;2.92;;
31638;SDS011;18248;51.522;7.020;2023-04-24T08:08:49;4.47;;;2.90;;
31638;SDS011;18248;51.522;7.020;2023-04-24T08:11:47;5.80;;;2.80;;
31638;SDS011;18248;51.522;7.020;2023-04-24T08:14:46;2.13;;;1.63;;
31638;SDS011;18248;51.522;7.020;2023-04-24T08:17:44;4.45;;;1.55;;
31638;SDS011;18248;51.522;7.020;2023-04-24T08:20:43;4.35;;;1.50;;
31638;SDS011;18248;51.522;7.020;2023-04-24T08:23:43;2.47;;;1.15;;
31638;SDS011;18248;51.522;7.020;2023-04-24T08:26:41;4.03;;;1.02;;
31638;SDS011;18248;51.522;7.020;2023-04-24T08:29:40;2.83;;;1.33;;
31638;SDS011;18248;51.522;7.020;2023-04-24T08:32:39;3.80;;;1.45;;
31638;SDS011;18248;51.522;7.020;2023-04-24T08:35:37;4.55;;;2.15;;
31638;SDS011;18248;51.522;7.020;2023-04-24T08:38:36;5.43;;;2.22;;
31638;SDS011;18248;51.522;7.020;2023-04-24T08:41:35;4.75;;;2.17;;
31638;SDS011;18248;51.522;7.020;2023-04-24T08:44:36;4.90;;;2.15;;
31638;SDS011;18248;51.522;7.020;2023-04-24T08:47:35;5.60;;;3.13;;
31638;SDS011;18248;51.522;7.020;2023-04-24T08:50:35;7.50;;;3.03;;
31638;SDS011;18248;51.522;7.020;2023-04-24T08:53:35;8.48;;;3.22;;
31638;SDS011;18248;51.522;7.020;2023-04-24T08:56:34;7.70;;;3.42;;
31638;SDS011;18248;51.522;7.020;2023-04-24T08:59:37;8.93;;;3.80;;
31638;SDS011;18248;51.522;7.020;2023-04-24T09:02:39;7.93;;;4.53;;
31638;SDS011;18248;51.522;7.020;2023-04-24T09:05:43;6.07;;;3.38;;
31638;SDS011;18248;51.522;7.020;2023-04-24T09:08:47;6.38;;;2.92;;
31638;SDS011;18248;51.522;7.020;2023-04-24T09:11:50;4.93;;;2.30;;
31638;SDS011;18248;51.522;7.020;2023-04-24T09:14:53;5.88;;;2.35;;
31638;SDS011;18248;51.522;7.020;2023-04-24T09:17:53;5.57;;;2.63;;
31638;SDS011;18248;51.522;7.020;2023-04-24T09:20:58;5.70;;;3.20;;
31638;SDS011;18248;51.522;7.020;2023-04-24T09:24:01;5.18;;;3.15;;
31638;SDS011;18248;51.522;7.020;2023-04-24T09:27:02;8.85;;;3.55;;
31638;SDS011;18248;51.522;7.020;2023-04-24T09:30:02;6.65;;;3.85;;
31638;SDS011;18248;51.522;7.020;2023-04-24T09:33:09;6.60;;;3.10;;
31638;SDS011;18248;51.522;7.020;2023-04-24T09:36:09;5.88;;;2.30;;
31638;SDS011;18248;51.522;7.020;2023-04-24T09:39:08;6.95;;;2.75;;
31638;SDS011;18248;51.522;7.020;2023-04-24T09:42:09;5.85;;;2.60;;
31638;SDS011;18248;51.522;7.020;2023-04-24T09:45:10;4.25;;;3.15;;
31638;SDS011;18248;51.522;7.020;2023-04-24T09:48:09;6.45;;;3.55;;
31638;SDS011;18248;51.522;7.020;2023-04-24T09:51:08;6.15;;;3.33;;
31638;SDS011;18248;51.522;7.020;2023-04-24T09:54:14;7.25;;;3.50;;
31638;SDS011;18248;51.522;7.020;2023-04-24T09:57:14;4.32;;;3.42;;
31638;SDS011;18248;51.522;7.020;2023-04-24T10:00:13;8.13;;;3.25;;
31638;SDS011;18248;51.522;7.020;2023-04-24T10:03:15;8.32;;;3.80;;
31638;SDS011;18248;51.522;7.020;2023-04-24T10:06:16;8.15;;;3.53;;
31638;SDS011;18248;51.522;7.020;2023-04-24T10:09:15;4.70;;;3.38;;
31638;SDS011;18248;51.522;7.020;2023-04-24T10:12:14;6.32;;;3.83;;
31638;SDS011;18248;51.522;7.020;2023-04-24T10:15:13;4.80;;;3.53;;
31638;SDS011;18248;51.522;7.020;2023-04-24T10:18:14;10.95;;;4.97;;
31638;SDS011;18248;51.522;7.020;2023-04-24T10:21:14;8.27;;;5.53;;
31638;SDS011;18248;51.522;7.020;2023-04-24T10:24:15;9.02;;;5.65;;
31638;SDS011;18248;51.522;7.020;2023-04-24T10:27:14;14.15;;;5.82;;
31638;SDS011;18248;51.522;7.020;2023-04-24T10:30:14;12.45;;;6.97;;
31638;SDS011;18248;51.522;7.020;2023-04-24T10:33:13;13.35;;;7.15;;
31638;SDS011;18248;51.522;7.020;2023-04-24T10:36:12;14.23;;;7.65;;
31638;SDS011;18248;51.522;7.020;2023-04-24T10:39:12;16.90;;;7.50;;
31638;SDS011;18248;51.522;7.020;2023-04-24T10:42:16;16.13;;;6.72;;
31638;SDS011;18248;51.522;7.020;2023-04-24T10:45:21;27.33;;;8.23;;
31638;SDS011;18248;51.522;7.020;2023-04-24T10:48:20;16.98;;;6.78;;
31638;SDS011;18248;51.522;7.020;2023-04-24T10:54:44;21.20;;;8.00;;
31638;SDS011;18248;51.522;7.020;2023-04-24T10:58:16;20.20;;;7.25;;
31638;SDS011;18248;51.522;7.020;2023-04-24T11:01:08;21.75;;;7.35;;
31638;SDS011;18248;51.522;7.020;2023-04-24T11:04:07;21.20;;;7.45;;
31638;SDS011;18248;51.522;7.020;2023-04-24T11:07:05;21.35;;;6.93;;
31638;SDS011;18248;51.522;7.020;2023-04-24T11:10:04;28.27;;;7.68;;
31638;SDS011;18248;51.522;7.020;2023-04-24T11:13:03;20.15;;;7.03;;
31638;SDS011;18248;51.522;7.020;2023-04-24T11:22:22;25.35;;;7.63;;
31638;SDS011;18248;51.522;7.020;2023-04-24T11:25:22;26.73;;;7.57;;
31638;SDS011;18248;51.522;7.020;2023-04-24T11:28:20;13.95;;;5.93;;
31638;SDS011;18248;51.522;7.020;2023-04-24T11:34:37;25.50;;;7.43;;
31638;SDS011;18248;51.522;7.020;2023-04-24T11:37:41;17.42;;;5.90;;
31638;SDS011;18248;51.522;7.020;2023-04-24T11:40:42;20.15;;;6.80;;
31638;SDS011;18248;51.522;7.020;2023-04-24T11:43:42;25.48;;;6.13;;
31638;SDS011;18248;51.522;7.020;2023-04-24T11:46:41;18.33;;;5.95;;
31638;SDS011;18248;51.522;7.020;2023-04-24T11:49:40;14.68;;;4.38;;
31638;SDS011;18248;51.522;7.020;2023-04-24T11:52:40;17.88;;;5.53;;
31638;SDS011;18248;51.522;7.020;2023-04-24T11:55:39;21.25;;;6.28;;
31638;SDS011;18248;51.522;7.020;2023-04-24T11:58:38;19.05;;;4.78;;
31638;SDS011;18248;51.522;7.020;2023-04-24T12:01:44;13.45;;;4.28;;
31638;SDS011;18248;51.522;7.020;2023-04-24T12:04:43;15.32;;;4.20;;
31638;SDS011;18248;51.522;7.020;2023-04-24T12:07:41;15.52;;;4.88;;
31638;SDS011;18248;51.522;7.020;2023-04-24T12:10:43;21.23;;;5.60;;
31638;SDS011;18248;51.522;7.020;2023-04-24T12:13:43;16.30;;;4.43;;
31638;SDS011;18248;51.522;7.020;2023-04-24T12:16:42;17.00;;;4.35;;
31638;SDS011;18248;51.522;7.020;2023-04-24T12:19:46;17.23;;;4.50;;
31638;SDS011;18248;51.522;7.020;2023-04-24T12:22:50;13.18;;;3.88;;
31638;SDS011;18248;51.522;7.020;2023-04-24T12:25:52;15.00;;;3.75;;
31638;SDS011;18248;51.522;7.020;2023-04-24T12:28:51;20.83;;;4.47;;
31638;SDS011;18248;51.522;7.020;2023-04-24T12:31:50;16.65;;;4.60;;
31638;SDS011;18248;51.522;7.020;2023-04-24T12:34:49;17.30;;;4.70;;
31638;SDS011;18248;51.522;7.020;2023-04-24T12:37:50;16.92;;;5.22;;
31638;SDS011;18248;51.522;7.020;2023-04-24T12:41:00;15.52;;;4.50;;
31638;SDS011;18248;51.522;7.020;2023-04-24T12:44:10;13.45;;;4.18;;
31638;SDS011;18248;51.522;7.020;2023-04-24T12:47:11;13.60;;;3.65;;
31638;SDS011;18248;51.522;7.020;2023-04-24T12:50:10;14.00;;;3.72;;
31638;SDS011;18248;51.522;7.020;2023-04-24T12:53:14;14.13;;;3.30;;
31638;SDS011;18248;51.522;7.020;2023-04-24T12:56:13;9.90;;;2.53;;
31638;SDS011;18248;51.522;7.020;2023-04-24T12:59:12;6.70;;;2.00;;
31638;SDS011;18248;51.522;7.020;2023-04-24T13:02:11;7.60;;;2.25;;
31638;SDS011;18248;51.522;7.020;2023-04-24T13:05:11;9.57;;;2.58;;
31638;SDS011;18248;51.522;7.020;2023-04-24T13:08:11;10.23;;;3.42;;
31638;SDS011;18248;51.522;7.020;2023-04-24T13:11:10;12.98;;;3.80;;
31638;SDS011;18248;51.522;7.020;2023-04-24T13:14:09;12.48;;;3.10;;
31638;SDS011;18248;51.522;7.020;2023-04-24T13:17:08;12.18;;;2.97;;
31638;SDS011;18248;51.522;7.020;2023-04-24T13:20:07;8.15;;;3.38;;
31638;SDS011;18248;51.522;7.020;2023-04-24T13:23:05;9.95;;;2.97;;
31638;SDS011;18248;51.522;7.020;2023-04-24T13:26:04;10.50;;;3.08;;
31638;SDS011;18248;51.522;7.020;2023-04-24T13:29:03;9.10;;;2.90;;
31638;SDS011;18248;51.522;7.020;2023-04-24T13:32:01;7.57;;;2.65;;
31638;SDS011;18248;51.522;7.020;2023-04-24T13:35:00;8.20;;;2.63;;
31638;SDS011;18248;51.522;7.020;2023-04-24T13:38:00;8.45;;;2.65;;
31638;SDS011;18248;51.522;7.020;2023-04-24T13:41:01;7.85;;;2.33;;
31638;SDS011;18248;51.522;7.020;2023-04-24T13:44:00;10.30;;;3.50;;
31638;SDS011;18248;51.522;7.020;2023-04-24T13:46:59;10.55;;;3.35;;
31638;SDS011;18248;51.522;7.020;2023-04-24T13:49:58;7.47;;;2.35;;
31638;SDS011;18248;51.522;7.020;2023-04-24T13:52:56;7.50;;;2.67;;
31638;SDS011;18248;51.522;7.020;2023-04-24T13:55:55;6.60;;;2.67;;
31638;SDS011;18248;51.522;7.020;2023-04-24T13:58:56;5.72;;;2.53;;
31638;SDS011;18248;51.522;7.020;2023-04-24T14:01:55;8.65;;;2.53;;
31638;SDS011;18248;51.522;7.020;2023-04-24T14:04:53;13.43;;;3.42;;
31638;SDS011;18248;51.522;7.020;2023-04-24T14:07:53;10.95;;;3.05;;
31638;SDS011;18248;51.522;7.020;2023-04-24T14:10:52;10.35;;;2.95;;
31638;SDS011;18248;51.522;7.020;2023-04-24T14:13:50;6.93;;;2.47;;
31638;SDS011;18248;51.522;7.020;2023-04-24T14:16:49;9.45;;;2.85;;
31638;SDS011;18248;51.522;7.020;2023-04-24T14:19:48;5.70;;;1.85;;
31638;SDS011;18248;51.522;7.020;2023-04-24T14:22:46;10.50;;;1.95;;
31638;SDS011;18248;51.522;7.020;2023-04-24T14:25:45;9.75;;;2.03;;
31638;SDS011;18248;51.522;7.020;2023-04-24T14:28:44;7.78;;;1.83;;
31638;SDS011;18248;51.522;7.020;2023-04-24T14:31:42;10.85;;;2.40;;
31638;SDS011;18248;51.522;7.020;2023-04-24T14:34:41;6.90;;;2.80;;
31638;SDS011;18248;51.522;7.020;2023-04-24T14:37:39;8.80;;;3.13;;
31638;SDS011;18248;51.522;7.020;2023-04-24T14:40:41;6.90;;;2.97;;
31638;SDS011;18248;51.522;7.020;2023-04-24T14:43:40;8.90;;;3.38;;
31638;SDS011;18248;51.522;7.020;2023-04-24T14:46:39;13.88;;;3.97;;
31638;SDS011;18248;51.522;7.020;2023-04-24T14:49:37;6.43;;;2.92;;
31638;SDS011;18248;51.522;7.020;2023-04-24T14:52:36;8.35;;;2.92;;
31638;SDS011;18248;51.522;7.020;2023-04-24T14:55:35;6.45;;;2.88;;
31638;SDS011;18248;51.522;7.020;2023-04-24T14:58:34;9.73;;;3.03;;
31638;SDS011;18248;51.522;7.020;2023-04-24T15:01:32;10.98;;;3.60;;
31638;SDS011;18248;51.522;7.020;2023-04-24T15:04:31;10.63;;;3.65;;
31638;SDS011;18248;51.522;7.020;2023-04-24T15:07:29;8.68;;;2.72;;
31638;SDS011;18248;51.522;7.020;2023-04-24T15:10:29;8.50;;;2.80;;
31638;SDS011;18248;51.522;7.020;2023-04-24T15:13:28;6.32;;;2.03;;
31638;SDS011;18248;51.522;7.020;2023-04-24T15:16:27;5.80;;;1.88;;
31638;SDS011;18248;51.522;7.020;2023-04-24T15:19:25;5.85;;;2.17;;
31638;SDS011;18248;51.522;7.020;2023-04-24T15:22:24;10.80;;;2.67;;
31638;SDS011;18248;51.522;7.020;2023-04-24T15:25:23;9.18;;;2.78;;
31638;SDS011;18248;51.522;7.020;2023-04-24T15:28:21;8.00;;;1.80;;
31638;SDS011;18248;51.522;7.020;2023-04-24T15:31:20;5.05;;;1.85;;
31638;SDS011;18248;51.522;7.020;2023-04-24T15:34:20;5.38;;;2.08;;
31638;SDS011;18248;51.522;7.020;2023-04-24T15:37:19;5.22;;;1.70;;
31638;SDS011;18248;51.522;7.020;2023-04-24T15:40:17;8.73;;;1.98;;
31638;SDS011;18248;51.522;7.020;2023-04-24T15:43:16;5.38;;;1.75;;
31638;SDS011;18248;51.522;7.020;2023-04-24T15:46:15;5.72;;;1.98;;
31638;SDS011;18248;51.522;7.020;2023-04-24T15:49:13;8.27;;;2.13;;
31638;SDS011;18248;51.522;7.020;2023-04-24T15:52:12;11.07;;;2.25;;
31638;SDS011;18248;51.522;7.020;2023-04-24T15:55:11;12.77;;;2.50;;
31638;SDS011;18248;51.522;7.020;2023-04-24T15:58:10;6.35;;;2.22;;
31638;SDS011;18248;51.522;7.020;2023-04-24T16:01:08;4.47;;;2.05;;
31638;SDS011;18248;51.522;7.020;2023-04-24T16:04:07;5.75;;;2.40;;
31638;SDS011;18248;51.522;7.020;2023-04-24T16:07:06;6.43;;;2.50;;
31638;SDS011;18248;51.522;7.020;2023-04-24T16:10:05;9.68;;;1.80;;
31638;SDS011;18248;51.522;7.020;2023-04-24T16:13:03;5.85;;;1.98;;
31638;SDS011;18248;51.522;7.020;2023-04-24T16:16:03;5.75;;;1.83;;
31638;SDS011;18248;51.522;7.020;2023-04-24T16:19:02;8.63;;;1.80;;
31638;SDS011;18248;51.522;7.020;2023-04-24T16:22:00;5.03;;;1.63;;
31638;SDS011;18248;51.522;7.020;2023-04-24T16:25:01;7.32;;;2.20;;
31638;SDS011;18248;51.522;7.020;2023-04-24T16:28:00;5.80;;;2.13;;
31638;SDS011;18248;51.522;7.020;2023-04-24T16:30:58;30.08;;;18.80;;
31638;SDS011;18248;51.522;7.020;2023-04-24T16:33:57;7.53;;;3.35;;
31638;SDS011;18248;51.522;7.020;2023-04-24T16:36:55;7.53;;;3.50;;
31638;SDS011;18248;51.522;7.020;2023-04-24T16:39:54;6.05;;;2.53;;
31638;SDS011;18248;51.522;7.020;2023-04-24T16:42:53;5.03;;;1.80;;
31638;SDS011;18248;51.522;7.020;2023-04-24T16:45:52;6.68;;;2.13;;
31638;SDS011;18248;51.522;7.020;2023-04-24T16:48:51;6.20;;;2.13;;
31638;SDS011;18248;51.522;7.020;2023-04-24T16:51:51;5.72;;;2.30;;
31638;SDS011;18248;51.522;7.020;2023-04-24T16:54:51;8.23;;;3.22;;
31638;SDS011;18248;51.522;7.020;2023-04-24T16:57:50;6.78;;;2.08;;
31638;SDS011;18248;51.522;7.020;2023-04-24T17:00:48;6.22;;;2.50;;
31638;SDS011;18248;51.522;7.020;2023-04-24T17:03:47;10.70;;;2.65;;
31638;SDS011;18248;51.522;7.020;2023-04-24T17:06:47;6.53;;;3.22;;
31638;SDS011;18248;51.522;7.020;2023-04-24T17:09:45;5.95;;;2.00;;
31638;SDS011;18248;51.522;7.020;2023-04-24T17:12:44;6.50;;;2.40;;
31638;SDS011;18248;51.522;7.020;2023-04-24T17:15:42;6.15;;;2.03;;
31638;SDS011;18248;51.522;7.020;2023-04-24T17:18:41;5.55;;;2.30;;
31638;SDS011;18248;51.522;7.020;2023-04-24T17:21:40;10.90;;;3.33;;
31638;SDS011;18248;51.522;7.020;2023-04-24T17:24:38;10.73;;;2.92;;
31638;SDS011;18248;51.522;7.020;2023-04-24T17:27:37;11.18;;;3.40;;
31638;SDS011;18248;51.522;7.020;2023-04-24T17:30:35;12.05;;;3.38;;
31638;SDS011;18248;51.522;7.020;2023-04-24T17:33:34;8.48;;;3.05;;
31638;SDS011;18248;51.522;7.020;2023-04-24T17:36:32;9.25;;;3.00;;
31638;SDS011;18248;51.522;7.020;2023-04-24T17:39:31;11.40;;;3.28;;
31638;SDS011;18248;51.522;7.020;2023-04-24T17:42:31;14.43;;;3.35;;
31638;SDS011;18248;51.522;7.020;2023-04-24T17:45:30;7.30;;;2.20;;
31638;SDS011;18248;51.522;7.020;2023-04-24T17:48:29;10.65;;;2.97;;
31638;SDS011;18248;51.522;7.020;2023-04-24T17:51:27;11.15;;;3.15;;
31638;SDS011;18248;51.522;7.020;2023-04-24T17:54:26;13.80;;;3.03;;
31638;SDS011;18248;51.522;7.020;2023-04-24T17:57:24;12.48;;;3.13;;
31638;SDS011;18248;51.522;7.020;2023-04-24T18:00:24;14.88;;;5.18;;
31638;SDS011;18248;51.522;7.020;2023-04-24T18:03:22;22.05;;;8.02;;
31638;SDS011;18248;51.522;7.020;2023-04-24T18:06:21;22.00;;;10.68;;